createdAt,value
2019-04-07T00:02:19.990Z,34.40
2019-04-07T00:04:50.632Z,35.40
2019-04-07T00:07:22.903Z,38.60
2019-04-07T00:09:55.867Z,41.80
2019-04-07T00:12:25.755Z,42.60
2019-04-07T00:14:56.211Z,35.80
2019-04-07T00:17:27.217Z,36.40
2019-04-07T00:19:58.317Z,37.80
2019-04-07T00:22:30.482Z,34.40
2019-04-07T00:25:02.474Z,40.80
2019-04-07T00:27:33.369Z,38.60
2019-04-07T00:30:04.031Z,34.00
2019-04-07T00:32:35.035Z,42.20
2019-04-07T00:35:06.059Z,39.60
2019-04-07T00:37:36.300Z,34.40
2019-04-07T00:40:07.031Z,42.20
2019-04-07T00:42:38.100Z,41.40
2019-04-07T00:45:08.863Z,38.20
2019-04-07T00:47:39.306Z,44.60
2019-04-07T00:50:09.472Z,32.20
2019-04-07T00:52:39.485Z,38.60
2019-04-07T00:55:10.191Z,40.60
2019-04-07T00:57:40.729Z,41.20
2019-04-07T01:00:12.221Z,39.00
2019-04-07T01:02:45.490Z,38.00
2019-04-07T01:05:15.483Z,33.20
2019-04-07T01:07:46.381Z,41.80
2019-04-07T01:10:17.396Z,42.20
2019-04-07T01:12:47.448Z,45.80
2019-04-07T01:15:17.698Z,37.00
2019-04-07T01:17:48.705Z,43.80
2019-04-07T01:20:19.809Z,31.80
2019-04-07T01:22:50.134Z,39.40
2019-04-07T01:25:20.321Z,40.40
2019-04-07T01:27:52.219Z,38.20
2019-04-07T01:30:22.940Z,34.40
2019-04-07T01:32:53.505Z,37.20
2019-04-07T01:35:24.786Z,41.40
2019-04-07T01:37:56.101Z,44.60
2019-04-07T01:40:28.845Z,42.40
2019-04-07T01:43:23.855Z,37.80
2019-04-07T01:46:17.516Z,40.40
2019-04-07T01:49:11.001Z,34.20
2019-04-07T01:51:50.870Z,39.60
2019-04-07T01:54:49.414Z,37.20
2019-04-07T01:57:38.685Z,40.00
2019-04-07T02:00:34.405Z,33.80
2019-04-07T02:03:18.833Z,37.40
2019-04-07T02:06:08.248Z,37.60
2019-04-07T02:09:01.739Z,33.60
2019-04-07T02:12:03.516Z,36.80
2019-04-07T02:14:51.145Z,37.00
2019-04-07T02:17:41.548Z,40.40
2019-04-07T02:21:07.096Z,41.80
2019-04-07T02:23:53.622Z,38.20
2019-04-07T02:26:31.933Z,34.40
2019-04-07T02:29:39.969Z,32.60
2019-04-07T02:32:27.836Z,40.20
2019-04-07T02:35:32.436Z,38.60
2019-04-07T02:38:17.085Z,41.00
2019-04-07T02:40:53.735Z,32.40
2019-04-07T02:43:46.570Z,36.60
2019-04-07T02:46:31.482Z,39.00
2019-04-07T02:49:24.161Z,31.60
2019-04-07T02:52:16.592Z,31.60
2019-04-07T02:55:09.692Z,37.40
2019-04-07T02:57:59.624Z,33.80
2019-04-07T03:00:39.727Z,42.80
2019-04-07T03:03:41.074Z,37.40
2019-04-07T03:06:47.667Z,36.80
2019-04-07T03:09:34.894Z,44.60
2019-04-07T03:12:18.966Z,42.80
2019-04-07T03:15:09.357Z,43.80
2019-04-07T03:18:01.762Z,36.40
2019-04-07T03:20:53.868Z,43.60
2019-04-07T03:23:44.420Z,46.40
2019-04-07T03:26:32.367Z,36.20
2019-04-07T03:29:14.847Z,46.60
2019-04-07T03:32:15.855Z,42.00
2019-04-07T03:35:15.976Z,31.80
2019-04-07T03:37:53.337Z,39.20
2019-04-07T03:40:42.947Z,39.40
2019-04-07T03:43:34.919Z,30.00
2019-04-07T03:46:17.162Z,37.80
2019-04-07T03:49:09.963Z,32.60
2019-04-07T03:51:49.905Z,40.80
2019-04-07T03:54:46.551Z,37.00
2019-04-07T03:57:44.591Z,33.60
2019-04-07T04:01:35.815Z,37.40
2019-04-07T04:04:30.034Z,38.20
2019-04-07T04:07:22.406Z,40.40
2019-04-07T04:10:09.805Z,37.00
2019-04-07T04:12:59.370Z,36.60
2019-04-07T04:15:54.731Z,36.80
2019-04-07T04:18:26.235Z,36.40
2019-04-07T04:20:57.169Z,43.80
2019-04-07T04:23:28.510Z,43.00
2019-04-07T04:25:59.070Z,38.60
2019-04-07T04:28:30.681Z,40.40
2019-04-07T04:31:00.948Z,40.40
2019-04-07T04:33:31.096Z,42.60
2019-04-07T04:36:03.047Z,38.80
2019-04-07T04:38:33.809Z,37.80
2019-04-07T04:41:04.837Z,41.80
2019-04-07T04:43:36.034Z,42.20
2019-04-07T04:46:09.415Z,35.20
2019-04-07T04:48:38.762Z,32.20
2019-04-07T04:51:09.753Z,37.00
2019-04-07T04:53:44.305Z,40.60
2019-04-07T04:56:16.872Z,38.80
2019-04-07T04:58:47.750Z,36.00
2019-04-07T05:01:19.428Z,37.80
2019-04-07T05:03:49.558Z,39.00
2019-04-07T05:06:20.981Z,35.80
2019-04-07T05:08:52.401Z,37.40
2019-04-07T05:11:22.528Z,32.80
2019-04-07T05:13:53.083Z,37.00
2019-04-07T05:16:24.495Z,37.40
2019-04-07T05:18:55.027Z,34.00
2019-04-07T05:21:25.177Z,41.60
2019-04-07T05:23:55.167Z,35.80
2019-04-07T05:26:26.491Z,39.20
2019-04-07T05:28:58.236Z,36.60
2019-04-07T05:31:28.509Z,33.80
2019-04-07T05:34:00.298Z,35.80
2019-04-07T05:36:36.949Z,39.00
2019-04-07T05:39:08.652Z,40.60
2019-04-07T05:41:39.288Z,27.60
2019-04-07T05:44:11.390Z,39.00
2019-04-07T05:46:42.607Z,31.80
2019-04-07T05:49:15.784Z,38.20
2019-04-07T05:51:45.144Z,37.60
2019-04-07T05:54:18.080Z,36.60
2019-04-07T05:56:47.532Z,35.60
2019-04-07T05:59:17.974Z,38.80
2019-04-07T06:01:51.599Z,37.80
2019-04-07T06:04:21.736Z,36.00
2019-04-07T06:06:55.077Z,34.60
2019-04-07T06:09:24.179Z,37.00
2019-04-07T06:11:54.472Z,32.60
2019-04-07T06:14:24.494Z,36.60
2019-04-07T06:16:55.809Z,36.80
2019-04-07T06:19:27.905Z,35.20
2019-04-07T06:21:58.064Z,36.80
2019-04-07T06:24:31.608Z,41.60
2019-04-07T06:27:00.798Z,37.60
2019-04-07T06:29:31.118Z,37.00
2019-04-07T06:32:03.679Z,36.80
2019-04-07T06:34:33.795Z,36.40
2019-04-07T06:37:04.526Z,39.00
2019-04-07T06:39:35.204Z,37.60
2019-04-07T06:42:05.880Z,37.60
2019-04-07T06:44:38.548Z,34.60
2019-04-07T06:47:22.066Z,36.80
2019-04-07T06:50:09.708Z,33.20
2019-04-07T06:53:02.232Z,28.40
2019-04-07T06:55:58.454Z,36.60
2019-04-07T06:58:49.208Z,38.60
2019-04-07T07:01:29.735Z,37.20
2019-04-07T07:04:17.959Z,28.60
2019-04-07T07:07:13.029Z,41.00
2019-04-07T07:10:25.763Z,34.00
2019-04-07T07:13:09.454Z,40.00
2019-04-07T07:15:41.784Z,33.80
2019-04-07T07:18:30.638Z,36.40
2019-04-07T07:21:20.189Z,38.00
2019-04-07T07:23:50.545Z,33.20
2019-04-07T07:26:21.887Z,38.20
2019-04-07T07:28:53.006Z,34.00
2019-04-07T07:31:25.793Z,35.20
2019-04-07T07:34:09.308Z,38.00
2019-04-07T07:36:38.334Z,34.60
2019-04-07T07:39:11.794Z,37.40
2019-04-07T07:41:40.994Z,35.20
2019-04-07T07:44:10.956Z,31.20
2019-04-07T07:46:42.164Z,30.60
2019-04-07T07:49:12.472Z,34.40
2019-04-07T07:51:45.063Z,30.20
2019-04-07T07:54:15.068Z,20.60
2019-04-07T07:56:49.386Z,30.40
2019-04-07T07:59:17.804Z,26.80
2019-04-07T08:01:50.299Z,22.00
2019-04-07T08:04:20.731Z,22.20
2019-04-07T08:06:51.280Z,25.00
2019-04-07T08:09:24.965Z,25.40
2019-04-07T08:11:54.362Z,27.40
2019-04-07T08:14:24.497Z,30.20
2019-04-07T08:17:00.188Z,30.20
2019-04-07T08:19:30.524Z,19.60
2019-04-07T08:22:01.761Z,29.20
2019-04-07T08:24:32.717Z,29.40
2019-04-07T08:27:07.363Z,28.00
2019-04-07T08:29:39.564Z,27.00
2019-04-07T08:32:09.012Z,22.80
2019-04-07T08:34:39.253Z,24.20
2019-04-07T08:37:13.907Z,19.80
2019-04-07T08:39:42.176Z,17.40
2019-04-07T08:42:17.509Z,17.40
2019-04-07T08:44:46.254Z,19.40
2019-04-07T08:47:20.008Z,13.80
2019-04-07T08:49:48.249Z,16.40
2019-04-07T08:52:18.523Z,15.60
2019-04-07T08:54:52.178Z,15.60
2019-04-07T08:57:21.385Z,21.20
2019-04-07T08:59:51.690Z,12.80
2019-04-07T09:02:24.481Z,16.00
2019-04-07T09:04:53.537Z,12.40
2019-04-07T09:07:26.634Z,15.40
2019-04-07T09:10:04.547Z,9.40
2019-04-07T09:12:38.101Z,13.00
2019-04-07T09:15:11.816Z,12.20
2019-04-07T09:17:49.639Z,18.00
2019-04-07T09:20:46.135Z,15.80
2019-04-07T09:23:42.591Z,17.60
2019-04-07T09:26:30.323Z,18.80
2019-04-07T09:29:07.304Z,19.40
2019-04-07T09:32:05.431Z,18.60
2019-04-07T09:34:54.017Z,22.80
2019-04-07T09:37:53.322Z,16.80
2019-04-07T09:40:42.429Z,11.20
2019-04-07T09:43:26.184Z,17.80
2019-04-07T09:46:14.711Z,19.40
2019-04-07T09:49:15.767Z,21.00
2019-04-07T09:52:23.943Z,20.60
2019-04-07T09:55:08.318Z,21.20
2019-04-07T09:57:53.865Z,18.80
2019-04-07T10:00:35.223Z,18.20
2019-04-07T10:03:14.852Z,21.80
2019-04-07T10:06:11.150Z,19.40
2019-04-07T10:09:13.012Z,21.00
2019-04-07T10:11:55.385Z,22.20
2019-04-07T10:14:35.057Z,19.40
2019-04-07T10:17:24.298Z,21.00
2019-04-07T10:20:16.390Z,16.40
2019-04-07T10:23:08.026Z,22.40
2019-04-07T10:26:15.749Z,18.00
2019-04-07T10:29:11.028Z,19.00
2019-04-07T10:32:15.126Z,17.20
2019-04-07T10:35:19.304Z,22.60
2019-04-07T10:38:17.503Z,15.20
2019-04-07T10:41:06.796Z,21.60
2019-04-07T10:43:52.961Z,21.80
2019-04-07T10:46:31.533Z,14.60
2019-04-07T10:49:22.707Z,18.00
2019-04-07T10:52:21.445Z,21.40
2019-04-07T10:55:05.092Z,18.00
2019-04-07T10:57:43.631Z,22.00
2019-04-07T11:00:30.265Z,18.40
2019-04-07T11:03:33.000Z,15.20
2019-04-07T11:06:20.540Z,20.00
2019-04-07T11:09:13.869Z,23.40
2019-04-07T11:12:03.266Z,20.00
2019-04-07T11:14:50.149Z,16.40
2019-04-07T11:17:33.829Z,20.00
2019-04-07T11:20:13.228Z,21.00
2019-04-07T11:23:01.984Z,19.00
2019-04-07T11:25:51.142Z,19.80
2019-04-07T11:28:29.505Z,23.40
2019-04-07T11:31:19.787Z,24.60
2019-04-07T11:34:07.199Z,22.20
2019-04-07T11:37:04.954Z,25.60
2019-04-07T11:39:55.370Z,22.00
2019-04-07T11:42:44.777Z,19.80
2019-04-07T11:45:37.780Z,20.60
2019-04-07T11:48:29.507Z,19.40
2019-04-07T11:51:22.690Z,21.20
2019-04-07T11:57:27.066Z,22.40
2019-04-07T12:00:49.074Z,21.60
2019-04-07T12:03:57.146Z,20.40
2019-04-07T12:06:49.825Z,16.20
2019-04-07T12:09:30.511Z,24.40
2019-04-07T12:12:20.149Z,18.20
2019-04-07T12:15:04.227Z,20.00
2019-04-07T12:17:59.258Z,16.80
2019-04-07T12:20:44.001Z,21.20
2019-04-07T12:23:53.374Z,14.60
2019-04-07T12:26:45.195Z,21.20
2019-04-07T12:29:40.146Z,22.00
2019-04-07T12:32:27.681Z,17.40
2019-04-07T12:35:20.329Z,19.20
2019-04-07T12:38:13.507Z,15.80
2019-04-07T12:41:13.470Z,20.20
2019-04-07T12:44:08.015Z,23.60
2019-04-07T12:46:58.338Z,23.00
2019-04-07T12:49:50.650Z,18.40
2019-04-07T12:52:48.481Z,24.80
2019-04-07T12:55:37.203Z,24.00
2019-04-07T12:58:24.560Z,26.20
2019-04-07T13:01:19.332Z,19.00
2019-04-07T13:03:54.741Z,21.60
2019-04-07T13:06:45.232Z,24.60
2019-04-07T13:09:34.673Z,19.40
2019-04-07T13:12:24.751Z,21.80
2019-04-07T13:15:14.170Z,18.00
2019-04-07T13:17:57.428Z,22.00
2019-04-07T13:20:38.616Z,18.60
2019-04-07T13:23:29.775Z,21.00
2019-04-07T13:26:19.147Z,26.20
2019-04-07T13:29:01.922Z,20.80
2019-04-07T13:31:50.455Z,19.80
2019-04-07T13:34:46.177Z,28.00
2019-04-07T13:37:32.776Z,20.60
2019-04-07T13:40:21.814Z,24.20
2019-04-07T13:43:11.152Z,27.00
2019-04-07T13:45:53.903Z,22.80
2019-04-07T13:49:02.830Z,26.60
2019-04-07T13:51:45.786Z,26.00
2019-04-07T13:54:37.167Z,25.80
2019-04-07T13:57:27.611Z,20.00
2019-04-07T14:00:26.349Z,22.20
2019-04-07T14:03:23.359Z,21.80
2019-04-07T14:06:18.186Z,23.80
2019-04-07T14:09:04.405Z,27.80
2019-04-07T14:12:04.896Z,30.60
2019-04-07T14:14:43.731Z,23.00
2019-04-07T14:17:31.883Z,27.80
2019-04-07T14:20:08.945Z,29.20
2019-04-07T14:23:07.379Z,28.40
2019-04-07T14:25:59.959Z,29.00
2019-04-07T14:29:03.065Z,29.40
2019-04-07T14:31:59.448Z,31.80
2019-04-07T14:34:49.827Z,30.00
2019-04-07T14:37:36.222Z,28.80
2019-04-07T14:40:17.283Z,32.40
2019-04-07T14:43:05.248Z,31.80
2019-04-07T14:45:48.468Z,31.40
2019-04-07T14:48:34.790Z,29.60
2019-04-07T14:51:26.637Z,30.40
2019-04-07T14:54:06.673Z,26.80
2019-04-07T14:56:59.368Z,24.20
2019-04-07T14:59:43.903Z,30.20
2019-04-07T15:02:15.616Z,27.20
2019-04-07T15:04:54.346Z,34.80
2019-04-07T15:07:44.004Z,29.40
2019-04-07T15:10:30.805Z,34.20
2019-04-07T15:13:05.229Z,33.60
2019-04-07T15:15:39.979Z,34.00
2019-04-07T15:18:10.002Z,33.40
2019-04-07T15:20:42.832Z,22.80
2019-04-07T15:23:14.810Z,28.80
2019-04-07T15:25:46.428Z,29.00
2019-04-07T15:28:17.499Z,29.20
2019-04-07T15:30:49.137Z,32.80
2019-04-07T15:33:22.547Z,31.60
2019-04-07T15:35:53.438Z,31.80
2019-04-07T15:38:27.183Z,30.40
2019-04-07T15:40:59.647Z,30.40
2019-04-07T15:43:34.917Z,32.60
2019-04-07T15:46:03.853Z,29.40
2019-04-07T15:48:34.165Z,36.00
2019-04-07T15:51:04.932Z,30.20
2019-04-07T15:53:34.920Z,31.80
2019-04-07T15:56:06.485Z,37.80
2019-04-07T15:58:38.689Z,34.20
2019-04-07T16:01:11.793Z,33.40
2019-04-07T16:03:42.111Z,29.80
2019-04-07T16:06:15.300Z,37.20
2019-04-07T16:08:43.680Z,34.80
2019-04-07T16:11:13.625Z,33.20
2019-04-07T16:13:44.368Z,30.20
2019-04-07T16:16:14.600Z,33.20
2019-04-07T16:18:45.431Z,32.80
2019-04-07T16:21:18.041Z,33.20
2019-04-07T16:23:50.232Z,32.60
2019-04-07T16:26:20.149Z,36.60
2019-04-07T16:28:50.088Z,37.40
2019-04-07T16:31:24.286Z,36.40
2019-04-07T16:33:52.937Z,35.40
2019-04-07T16:36:25.394Z,32.80
2019-04-07T16:38:55.066Z,32.80
2019-04-07T16:41:25.892Z,38.60
2019-04-07T16:43:55.969Z,31.20
2019-04-07T16:46:26.015Z,34.00
2019-04-07T16:48:58.472Z,35.20
2019-04-07T16:51:31.649Z,34.60
2019-04-07T16:54:03.435Z,36.20
2019-04-07T16:56:33.458Z,38.00
2019-04-07T16:59:04.218Z,36.00
2019-04-07T17:01:37.854Z,29.60
2019-04-07T17:04:09.391Z,38.80
2019-04-07T17:06:40.187Z,37.40
2019-04-07T17:09:18.203Z,36.20
2019-04-07T17:11:48.309Z,30.40
2019-04-07T17:14:18.877Z,40.00
2019-04-07T17:16:48.906Z,43.00
2019-04-07T17:19:19.885Z,37.00
2019-04-07T17:21:56.440Z,42.20
2019-04-07T17:24:30.361Z,42.00
2019-04-07T17:27:03.117Z,40.80
2019-04-07T17:29:35.612Z,37.00
2019-04-07T17:32:06.390Z,37.80
2019-04-07T17:34:36.871Z,43.00
2019-04-07T17:37:07.777Z,40.80
2019-04-07T17:39:46.616Z,37.80
2019-04-07T17:42:18.408Z,31.80
2019-04-07T17:45:27.530Z,37.20
2019-04-07T17:48:14.906Z,41.80
2019-04-07T17:51:16.654Z,38.60
2019-04-07T17:53:57.704Z,43.80
2019-04-07T17:56:35.773Z,32.60
2019-04-07T17:59:24.821Z,39.40
2019-04-07T18:02:11.822Z,35.80
2019-04-07T18:04:53.714Z,45.00
2019-04-07T18:07:43.467Z,43.80
2019-04-07T18:10:35.231Z,33.00
2019-04-07T18:13:24.741Z,42.00
2019-04-07T18:16:18.375Z,37.80
2019-04-07T18:19:08.677Z,39.80
2019-04-07T18:22:18.245Z,39.00
2019-04-07T18:24:55.279Z,38.60
2019-04-07T18:27:33.276Z,40.00
2019-04-07T18:30:31.526Z,45.00
2019-04-07T18:33:20.689Z,47.60
2019-04-07T18:36:07.912Z,41.60
2019-04-07T18:39:17.337Z,46.80
2019-04-07T18:42:10.282Z,44.60
2019-04-07T18:44:59.566Z,41.60
2019-04-07T18:48:04.508Z,39.60
2019-04-07T18:50:53.294Z,44.20
2019-04-07T18:53:45.378Z,35.80
2019-04-07T18:56:34.554Z,34.60
2019-04-07T18:59:29.411Z,35.60
2019-04-07T19:02:17.156Z,45.00
2019-04-07T19:05:08.747Z,42.80
2019-04-07T19:08:05.998Z,42.20
2019-04-07T19:11:17.020Z,38.80
2019-04-07T19:14:14.268Z,36.80
2019-04-07T19:16:50.267Z,44.00
2019-04-07T19:19:47.139Z,40.80
2019-04-07T19:22:36.651Z,38.80
2019-04-07T19:25:24.651Z,43.40
2019-04-07T19:28:06.000Z,39.80
2019-04-07T19:30:47.511Z,30.60
2019-04-07T19:33:35.989Z,36.20
2019-04-07T19:36:24.406Z,38.00
2019-04-07T19:39:11.409Z,34.80
2019-04-07T19:42:14.353Z,40.00
2019-04-07T19:45:07.067Z,38.60
2019-04-07T19:48:11.924Z,40.80
2019-04-07T19:50:59.982Z,46.60
2019-04-07T19:53:56.189Z,33.00
2019-04-07T19:56:48.381Z,42.00
2019-04-07T19:59:42.667Z,40.80
2019-04-07T20:02:39.063Z,36.80
2019-04-07T20:05:27.263Z,37.80
2019-04-07T20:08:14.689Z,43.00
2019-04-07T20:10:57.172Z,38.20
2019-04-07T20:13:49.458Z,36.40
2019-04-07T20:16:47.385Z,42.00
2019-04-07T20:19:41.135Z,39.80
2019-04-07T20:22:28.747Z,36.80
2019-04-07T20:25:33.271Z,38.20
2019-04-07T20:28:30.437Z,43.00
2019-04-07T20:31:19.404Z,39.00
2019-04-07T20:34:02.171Z,42.20
2019-04-07T20:36:51.750Z,39.40
2019-04-07T20:39:47.796Z,38.60
2019-04-07T20:42:31.148Z,41.60
2019-04-07T20:45:19.268Z,40.20
2019-04-07T20:48:05.555Z,38.60
2019-04-07T20:51:12.914Z,40.80
2019-04-07T20:54:21.610Z,37.00
2019-04-07T20:57:09.298Z,39.00
2019-04-07T20:59:51.202Z,37.80
2019-04-07T21:02:37.742Z,36.20
2019-04-07T21:05:36.084Z,38.20
2019-04-07T21:08:20.093Z,37.00
2019-04-07T21:11:22.180Z,40.40
2019-04-07T21:14:19.092Z,42.20
2019-04-07T21:17:11.025Z,40.00
2019-04-07T21:19:59.169Z,35.80
2019-04-07T21:22:36.978Z,38.60
2019-04-07T21:25:16.808Z,41.20
2019-04-07T21:28:09.036Z,42.80
2019-04-07T21:30:59.175Z,45.20
2019-04-07T21:34:00.178Z,42.20
2019-04-07T21:36:45.216Z,44.00
2019-04-07T21:39:30.473Z,43.20
2019-04-07T21:42:23.207Z,39.80
2019-04-07T21:45:11.938Z,48.40
2019-04-07T21:47:53.135Z,42.40
2019-04-07T21:50:44.832Z,40.40
2019-04-07T21:53:30.402Z,45.20
2019-04-07T21:56:43.151Z,31.40
2019-04-07T21:59:39.690Z,42.00
2019-04-07T22:02:29.309Z,42.80
2019-04-07T22:05:15.651Z,41.00
2019-04-07T22:07:54.268Z,43.20
2019-04-07T22:10:24.317Z,39.80
2019-04-07T22:13:03.361Z,40.40
2019-04-07T22:15:42.149Z,43.00
2019-04-07T22:18:01.320Z,27.60
2019-04-07T22:20:31.397Z,36.60
2019-04-07T22:23:02.894Z,38.20
2019-04-07T22:25:33.525Z,45.20
2019-04-07T22:28:03.487Z,33.80
2019-04-07T22:30:34.040Z,47.00
2019-04-07T22:33:09.143Z,45.40
2019-04-07T22:35:41.751Z,38.80
2019-04-07T22:38:11.397Z,42.20
2019-04-07T22:40:41.657Z,38.40
2019-04-07T22:43:11.686Z,41.40
2019-04-07T22:45:52.715Z,41.00
2019-04-07T22:48:14.147Z,40.20
2019-04-07T22:50:44.319Z,31.40
2019-04-07T22:53:14.222Z,41.40
2019-04-07T22:55:44.389Z,40.40
2019-04-07T22:58:14.270Z,39.20
2019-04-07T23:00:44.615Z,33.60
2019-04-07T23:03:15.555Z,43.80
2019-04-07T23:05:47.009Z,43.20
2019-04-07T23:08:17.375Z,43.60
2019-04-07T23:10:47.904Z,41.60
2019-04-07T23:13:18.470Z,43.60
2019-04-07T23:15:48.654Z,44.00
2019-04-07T23:18:18.659Z,43.00
2019-04-07T23:20:49.165Z,47.40
2019-04-07T23:23:19.144Z,39.00
2019-04-07T23:25:48.942Z,41.00
2019-04-07T23:28:18.925Z,43.80
2019-04-07T23:30:49.215Z,43.80
2019-04-07T23:33:20.148Z,39.60
2019-04-07T23:35:50.038Z,47.20
2019-04-07T23:38:19.850Z,42.80
2019-04-07T23:40:49.874Z,39.60
2019-04-07T23:43:19.961Z,40.40
2019-04-07T23:45:49.882Z,44.60
2019-04-07T23:48:20.038Z,43.80
2019-04-07T23:50:50.165Z,40.60
2019-04-07T23:53:55.870Z,46.60
2019-04-07T23:56:26.159Z,45.20
2019-04-07T23:58:56.279Z,45.00
